Cottonwood, Idaho
Current Conditions -  °F | °C
As of 9:55 AM on Friday 31 Oct 2014 (Local Time) from KGIC Reporting Station
Clear Clear  
Wind Chill: 53°   Ceiling: Unl
Heat Index: 53°   Visibility: 10mi
Dew Point: 42°   Wind: 6mph
Humidity: 66%   Direction: 40°NE
Pressure: 29.81"   Gusts: NA
Location:  46.05°N, 116.35°W
Report Text: KGIC 311655Z AUTO 04005KT 10SM CLR 12/05 A2981 RMK AO1 T01150054
Loading
Personal Weather Stations






























Interactive Weather Map
Tropical Storm Tracking
New forecast layout! Learn more

10-Day Weather Forecast

Advertisements
Track Severe Weather on mobile